Time;durP1;ratioP1;P1;durP2;ratioP2;P2;SDS_P1;SDS_P2;PMS_P1;PMS_P2;Temp;Humidity;BMP_temperature;BMP_pressure;BME280_temperature;BME280_humidity;BME280_pressure;Samples;Min_cycle;Max_cycle;Signal;HPM_P1;HPM_P2
2023/04/23 00:00:00;;;;;;;3.75;2.70;;;;;;;;;;5085140;28;20261;-69
2023/04/23 00:02:29;;;;;;;2.88;2.60;;;;;;;;;;5084888;28;20271;-69
2023/04/23 00:04:57;;;;;;;3.05;2.70;;;;;;;;;;5084847;28;20203;-69
2023/04/23 00:07:23;;;;;;;2.42;2.28;;;;;;;;;;5084654;28;20220;-69
2023/04/23 00:09:52;;;;;;;3.92;2.28;;;;;;;;;;5084946;28;20267;-69
2023/04/23 00:12:19;;;;;;;2.45;2.25;;;;;;;;;;5084865;28;20502;-69
2023/04/23 00:14:46;;;;;;;5.68;2.88;;;;;;;;;;5084618;28;20204;-68
2023/04/23 00:17:12;;;;;;;3.58;2.60;;;;;;;;;;5084433;28;20212;-68
2023/04/23 00:19:40;;;;;;;2.38;2.20;;;;;;;;;;5084616;28;20207;-68
2023/04/23 00:22:06;;;;;;;6.90;2.47;;;;;;;;;;5084505;28;20197;-68
2023/04/23 00:24:35;;;;;;;7.78;2.38;;;;;;;;;;5084409;28;20368;-68
2023/04/23 00:27:01;;;;;;;2.88;2.50;;;;;;;;;;5084294;28;20204;-68
2023/04/23 00:29:27;;;;;;;2.67;2.08;;;;;;;;;;5084557;28;20197;-68
2023/04/23 00:31:54;;;;;;;3.40;2.50;;;;;;;;;;5084331;28;20197;-68
2023/04/23 00:34:20;;;;;;;3.75;2.30;;;;;;;;;;5084781;28;20196;-68
2023/04/23 00:36:48;;;;;;;4.93;2.20;;;;;;;;;;5084082;28;20200;-68
2023/04/23 00:39:14;;;;;;;3.92;2.15;;;;;;;;;;5084347;28;20496;-68
2023/04/23 00:41:41;;;;;;;2.47;2.15;;;;;;;;;;5084090;28;20434;-68
2023/04/23 00:44:07;;;;;;;7.47;2.13;;;;;;;;;;5084146;28;20197;-68
2023/04/23 00:46:35;;;;;;;3.05;1.90;;;;;;;;;;5083711;28;20207;-68
2023/04/23 00:49:01;;;;;;;3.25;2.10;;;;;;;;;;5083916;28;20257;-68
2023/04/23 00:51:28;;;;;;;5.00;2.05;;;;;;;;;;5083917;28;20196;-69
2023/04/23 00:53:56;;;;;;;3.95;2.33;;;;;;;;;;5083010;28;20431;-69
2023/04/23 00:56:23;;;;;;;3.78;1.98;;;;;;;;;;5083550;28;20223;-69
2023/04/23 00:58:50;;;;;;;2.38;1.63;;;;;;;;;;5083409;28;20253;-69
2023/04/23 01:01:19;;;;;;;3.45;1.70;;;;;;;;;;5084234;28;20196;-68
2023/04/23 01:03:46;;;;;;;2.33;1.85;;;;;;;;;;5083835;28;20267;-68
2023/04/23 01:06:12;;;;;;;2.92;1.70;;;;;;;;;;5083490;28;20197;-68
2023/04/23 01:08:40;;;;;;;2.67;2.17;;;;;;;;;;5083246;28;20243;-68
2023/04/23 01:11:07;;;;;;;3.72;2.08;;;;;;;;;;5083654;28;20218;-68
2023/04/23 01:13:34;;;;;;;3.08;2.00;;;;;;;;;;5083265;28;20457;-68
2023/04/23 01:16:00;;;;;;;5.10;1.52;;;;;;;;;;5075156;28;20196;-68
2023/04/23 01:18:28;;;;;;;3.15;1.90;;;;;;;;;;5083246;28;20208;-68
2023/04/23 01:20:55;;;;;;;3.20;1.73;;;;;;;;;;5082828;28;20447;-68
2023/04/23 01:23:22;;;;;;;2.30;1.48;;;;;;;;;;5083211;28;20200;-68
2023/04/23 01:25:49;;;;;;;2.15;1.48;;;;;;;;;;5083136;28;20516;-68
2023/04/23 01:28:15;;;;;;;1.98;1.70;;;;;;;;;;5082763;28;20220;-68
2023/04/23 01:30:42;;;;;;;4.82;2.03;;;;;;;;;;5083016;28;20223;-68
2023/04/23 01:33:09;;;;;;;3.88;1.95;;;;;;;;;;5083108;28;20431;-69
2023/04/23 01:35:35;;;;;;;2.40;1.90;;;;;;;;;;5083050;28;20399;-69
2023/04/23 01:38:02;;;;;;;1.88;1.77;;;;;;;;;;5082817;28;20193;-69
2023/04/23 01:40:30;;;;;;;1.77;1.40;;;;;;;;;;5082998;28;20207;-69
2023/04/23 01:42:56;;;;;;;3.33;2.00;;;;;;;;;;5082734;28;20554;-69
2023/04/23 01:45:23;;;;;;;3.80;2.25;;;;;;;;;;5082959;28;20557;-69
2023/04/23 01:47:49;;;;;;;2.17;1.45;;;;;;;;;;5082411;28;20227;-69
2023/04/23 01:50:15;;;;;;;2.95;1.60;;;;;;;;;;5082876;28;20196;-69
2023/04/23 01:52:43;;;;;;;3.75;1.60;;;;;;;;;;5082601;28;20233;-69
2023/04/23 01:55:09;;;;;;;1.88;1.58;;;;;;;;;;5082578;28;20200;-69
2023/04/23 01:57:37;;;;;;;6.38;1.88;;;;;;;;;;5082508;28;20200;-69
2023/04/23 02:00:07;;;;;;;2.55;1.75;;;;;;;;;;5074447;28;20235;-69
2023/04/23 02:02:33;;;;;;;1.60;1.60;;;;;;;;;;5082592;28;20204;-69
2023/04/23 02:05:02;;;;;;;5.80;2.35;;;;;;;;;;5082330;28;20481;-69
2023/04/23 02:07:28;;;;;;;2.17;2.05;;;;;;;;;;5082285;28;20377;-69
2023/04/23 02:09:54;;;;;;;3.97;1.73;;;;;;;;;;5082550;28;20209;-69
2023/04/23 02:12:21;;;;;;;2.45;1.35;;;;;;;;;;5082511;28;20200;-69
2023/04/23 02:14:48;;;;;;;2.15;1.95;;;;;;;;;;5082189;28;20227;-69
2023/04/23 02:17:15;;;;;;;2.97;1.63;;;;;;;;;;5082051;28;20301;-68
2023/04/23 02:19:41;;;;;;;2.55;1.63;;;;;;;;;;5082054;28;20254;-68
2023/04/23 02:22:08;;;;;;;1.60;1.50;;;;;;;;;;5082508;28;20430;-68
2023/04/23 02:24:34;;;;;;;2.83;1.20;;;;;;;;;;5082319;28;20238;-68
2023/04/23 02:27:00;;;;;;;2.08;1.80;;;;;;;;;;5081864;28;20504;-68
2023/04/23 02:29:27;;;;;;;1.85;1.75;;;;;;;;;;5082093;28;20480;-68
2023/04/23 02:31:54;;;;;;;3.45;1.60;;;;;;;;;;5081895;28;20206;-68
2023/04/23 02:34:21;;;;;;;2.42;1.45;;;;;;;;;;5082219;28;20514;-68
2023/04/23 02:36:47;;;;;;;2.80;1.70;;;;;;;;;;5082014;28;20388;-68
2023/04/23 02:39:13;;;;;;;5.07;1.33;;;;;;;;;;5081931;28;20218;-68
2023/04/23 02:41:39;;;;;;;1.85;1.70;;;;;;;;;;5082100;28;20208;-68
2023/04/23 02:44:06;;;;;;;1.50;1.40;;;;;;;;;;5073750;28;20197;-68
2023/04/23 02:46:32;;;;;;;3.30;1.70;;;;;;;;;;5081858;28;20203;-68
2023/04/23 02:48:59;;;;;;;2.17;1.75;;;;;;;;;;5081739;28;20287;-68
2023/04/23 02:51:26;;;;;;;2.15;1.80;;;;;;;;;;5082044;28;20200;-68
2023/04/23 02:53:52;;;;;;;2.13;1.90;;;;;;;;;;5081724;28;20215;-68
2023/04/23 02:56:18;;;;;;;2.10;1.80;;;;;;;;;;5081978;28;20214;-68
2023/04/23 02:58:44;;;;;;;1.45;1.45;;;;;;;;;;5081534;28;20196;-68
2023/04/23 03:01:11;;;;;;;2.30;1.77;;;;;;;;;;5081751;28;20208;-68
2023/04/23 03:03:37;;;;;;;1.95;1.50;;;;;;;;;;5081864;28;20273;-68
2023/04/23 03:06:06;;;;;;;2.38;1.75;;;;;;;;;;5081824;28;20205;-68
2023/04/23 03:08:32;;;;;;;2.60;1.25;;;;;;;;;;5081532;28;20224;-68
2023/04/23 03:10:59;;;;;;;1.92;1.75;;;;;;;;;;5081579;28;20204;-68
2023/04/23 03:13:25;;;;;;;2.47;1.90;;;;;;;;;;5081532;28;20407;-68
2023/04/23 03:15:52;;;;;;;2.28;1.73;;;;;;;;;;5081407;28;20464;-68
2023/04/23 03:18:19;;;;;;;4.35;1.50;;;;;;;;;;5083503;28;20227;-68
2023/04/23 03:20:45;;;;;;;3.30;1.48;;;;;;;;;;5085679;28;20503;-69
2023/04/23 03:23:13;;;;;;;3.03;1.48;;;;;;;;;;5085727;28;20510;-67
2023/04/23 03:25:39;;;;;;;1.60;1.50;;;;;;;;;;5085676;28;20496;-67
2023/04/23 03:28:05;;;;;;;1.42;1.33;;;;;;;;;;5085141;28;20254;-67
2023/04/23 03:30:32;;;;;;;2.13;1.60;;;;;;;;;;5085687;28;20456;-67
2023/04/23 03:32:59;;;;;;;2.53;1.45;;;;;;;;;;5085400;28;20238;-67
2023/04/23 03:35:26;;;;;;;1.50;1.40;;;;;;;;;;5085380;28;20275;-67
2023/04/23 03:37:52;;;;;;;1.40;1.27;;;;;;;;;;5085075;28;20200;-68
2023/04/23 03:40:20;;;;;;;1.73;1.50;;;;;;;;;;5085440;28;20246;-68
2023/04/23 03:42:46;;;;;;;4.95;1.63;;;;;;;;;;5085037;28;20208;-69
2023/04/23 03:45:13;;;;;;;2.17;1.50;;;;;;;;;;5085401;28;20242;-69
2023/04/23 03:47:39;;;;;;;4.68;1.25;;;;;;;;;;5085000;28;20204;-68
2023/04/23 03:50:06;;;;;;;2.15;1.38;;;;;;;;;;5085124;28;20400;-68
2023/04/23 03:52:33;;;;;;;1.98;1.15;;;;;;;;;;5085083;28;20200;-68
2023/04/23 03:54:59;;;;;;;1.67;1.30;;;;;;;;;;5084867;28;20206;-67
2023/04/23 03:57:26;;;;;;;1.38;1.27;;;;;;;;;;5084631;28;20201;-67
2023/04/23 03:59:53;;;;;;;1.30;1.20;;;;;;;;;;5084842;28;20196;-67
2023/04/23 04:02:19;;;;;;;1.33;1.20;;;;;;;;;;5084957;28;20234;-67
2023/04/23 04:04:48;;;;;;;1.55;1.55;;;;;;;;;;5084658;28;20201;-69
2023/04/23 04:07:14;;;;;;;1.25;1.25;;;;;;;;;;5084738;28;20500;-68
2023/04/23 04:09:40;;;;;;;1.50;1.40;;;;;;;;;;5084558;28;20447;-68
2023/04/23 04:12:07;;;;;;;1.40;1.40;;;;;;;;;;5084628;28;20388;-68
2023/04/23 04:14:34;;;;;;;1.70;1.60;;;;;;;;;;5084629;28;20212;-68
2023/04/23 04:17:01;;;;;;;2.63;1.40;;;;;;;;;;5084268;28;20201;-68
2023/04/23 04:19:27;;;;;;;1.50;1.42;;;;;;;;;;5084509;28;20234;-69
2023/04/23 04:21:53;;;;;;;2.75;1.77;;;;;;;;;;5084404;28;20209;-68
2023/04/23 04:24:20;;;;;;;3.80;1.70;;;;;;;;;;5084548;28;20253;-68
2023/04/23 04:26:46;;;;;;;2.75;1.42;;;;;;;;;;5084440;28;20223;-68
2023/04/23 04:29:12;;;;;;;3.00;1.73;;;;;;;;;;5083687;28;20239;-68
2023/04/23 04:31:40;;;;;;;2.10;2.00;;;;;;;;;;5084261;28;20226;-68
2023/04/23 04:34:07;;;;;;;2.67;2.03;;;;;;;;;;5084190;28;20503;-68
2023/04/23 04:36:34;;;;;;;2.35;1.92;;;;;;;;;;5084168;28;20548;-68
2023/04/23 04:39:02;;;;;;;2.80;1.75;;;;;;;;;;5083794;28;20508;-68
2023/04/23 04:41:28;;;;;;;1.98;1.85;;;;;;;;;;5084353;28;20196;-68
2023/04/23 04:43:54;;;;;;;3.88;2.00;;;;;;;;;;5084047;28;20268;-68
2023/04/23 04:46:21;;;;;;;2.28;2.10;;;;;;;;;;5083973;28;20201;-69
2023/04/23 04:48:48;;;;;;;3.75;2.13;;;;;;;;;;5083689;28;20224;-69
2023/04/23 04:51:15;;;;;;;4.00;1.63;;;;;;;;;;5075943;28;20512;-69
2023/04/23 04:53:41;;;;;;;1.98;1.88;;;;;;;;;;5083942;28;20676;-69
2023/04/23 04:56:07;;;;;;;2.55;2.13;;;;;;;;;;5083918;28;22237;-69
2023/04/23 04:58:34;;;;;;;3.50;1.80;;;;;;;;;;5083659;28;20569;-69
2023/04/23 05:01:00;;;;;;;2.50;2.30;;;;;;;;;;5083845;28;20208;-69
2023/04/23 05:03:27;;;;;;;2.50;2.28;;;;;;;;;;5083822;28;20264;-69
2023/04/23 05:05:55;;;;;;;2.30;2.10;;;;;;;;;;5083510;28;20262;-68
2023/04/23 05:08:21;;;;;;;2.70;1.95;;;;;;;;;;5083663;28;20197;-68
2023/04/23 05:10:49;;;;;;;2.10;1.95;;;;;;;;;;5083659;28;20216;-68
2023/04/23 05:13:15;;;;;;;2.00;1.90;;;;;;;;;;5075495;28;20223;-68
2023/04/23 05:15:41;;;;;;;1.77;1.65;;;;;;;;;;5083571;28;20208;-68
2023/04/23 05:18:09;;;;;;;1.95;1.85;;;;;;;;;;5083563;28;20426;-68
2023/04/23 05:20:35;;;;;;;2.65;2.38;;;;;;;;;;5083809;28;20484;-68
2023/04/23 05:23:03;;;;;;;3.95;1.90;;;;;;;;;;5083347;28;20204;-68
2023/04/23 05:25:30;;;;;;;1.65;1.63;;;;;;;;;;5083466;28;20200;-68
2023/04/23 05:27:56;;;;;;;1.80;1.80;;;;;;;;;;5082869;28;20273;-68
2023/04/23 05:30:22;;;;;;;2.90;1.83;;;;;;;;;;5083023;28;20254;-68
2023/04/23 05:32:48;;;;;;;1.90;1.80;;;;;;;;;;5083059;28;20204;-68
2023/04/23 05:35:15;;;;;;;3.03;2.00;;;;;;;;;;5074686;28;20538;-68
2023/04/23 05:37:41;;;;;;;1.95;1.83;;;;;;;;;;5083068;28;20201;-68
2023/04/23 05:40:09;;;;;;;2.25;1.60;;;;;;;;;;5082406;28;20549;-68
2023/04/23 05:42:36;;;;;;;3.90;2.53;;;;;;;;;;5083157;28;20266;-68
2023/04/23 05:45:02;;;;;;;2.95;2.15;;;;;;;;;;5082864;28;20220;-68
2023/04/23 05:47:29;;;;;;;4.80;2.90;;;;;;;;;;5082586;28;20203;-68
2023/04/23 05:49:56;;;;;;;2.95;2.60;;;;;;;;;;5082440;28;20539;-68
2023/04/23 05:52:22;;;;;;;15.02;10.38;;;;;;;;;;5083011;28;20227;-68
2023/04/23 05:54:48;;;;;;;4.53;3.90;;;;;;;;;;5082636;28;20242;-68
2023/04/23 05:57:16;;;;;;;2.85;2.65;;;;;;;;;;5082542;28;20526;-68
2023/04/23 05:59:42;;;;;;;3.25;2.95;;;;;;;;;;5082632;28;20246;-69
2023/04/23 06:02:10;;;;;;;3.28;2.58;;;;;;;;;;5082560;28;20253;-69
2023/04/23 06:04:36;;;;;;;3.65;3.35;;;;;;;;;;5082421;28;20208;-70
2023/04/23 06:07:03;;;;;;;1.73;1.63;;;;;;;;;;5082498;28;20238;-69
2023/04/23 06:09:29;;;;;;;1.80;1.70;;;;;;;;;;5082456;28;20262;-69
2023/04/23 06:11:55;;;;;;;2.25;2.15;;;;;;;;;;5082437;28;20270;-69
2023/04/23 06:14:23;;;;;;;2.33;1.52;;;;;;;;;;5082407;28;20200;-70
2023/04/23 06:16:49;;;;;;;2.78;2.58;;;;;;;;;;5082308;28;20207;-70
2023/04/23 06:19:16;;;;;;;2.78;2.00;;;;;;;;;;5082125;28;20200;-69
2023/04/23 06:21:42;;;;;;;3.72;1.50;;;;;;;;;;5082288;28;20305;-69
2023/04/23 06:24:08;;;;;;;1.70;1.60;;;;;;;;;;5082100;28;20200;-69
2023/04/23 06:26:34;;;;;;;1.55;1.50;;;;;;;;;;5082231;28;20205;-69
2023/04/23 06:29:01;;;;;;;2.80;1.60;;;;;;;;;;5081824;28;20220;-69
2023/04/23 06:31:29;;;;;;;1.77;1.33;;;;;;;;;;5082063;28;20196;-69
2023/04/23 06:33:55;;;;;;;2.00;1.38;;;;;;;;;;5081952;28;20294;-69
2023/04/23 06:36:21;;;;;;;1.42;1.33;;;;;;;;;;5082554;28;20250;-69
2023/04/23 06:38:47;;;;;;;1.55;1.30;;;;;;;;;;5082472;28;20204;-69
2023/04/23 06:41:14;;;;;;;1.40;1.10;;;;;;;;;;5082058;28;20290;-69
2023/04/23 06:43:40;;;;;;;1.52;1.25;;;;;;;;;;5082271;28;20200;-69
2023/04/23 06:46:06;;;;;;;1.33;1.20;;;;;;;;;;5082007;28;20204;-69
2023/04/23 06:48:34;;;;;;;1.50;1.40;;;;;;;;;;5082203;28;20376;-69
2023/04/23 06:51:00;;;;;;;1.10;1.10;;;;;;;;;;5082217;28;20224;-69
2023/04/23 06:53:26;;;;;;;2.03;0.98;;;;;;;;;;5082166;28;20526;-69
2023/04/23 06:55:53;;;;;;;1.15;1.15;;;;;;;;;;5082083;28;20238;-69
2023/04/23 06:58:19;;;;;;;1.30;1.15;;;;;;;;;;5081631;28;20196;-69
2023/04/23 07:00:46;;;;;;;0.93;0.80;;;;;;;;;;5081899;28;20196;-69
2023/04/23 07:03:12;;;;;;;1.05;0.80;;;;;;;;;;5082141;28;20226;-69
2023/04/23 07:05:39;;;;;;;0.70;0.70;;;;;;;;;;5082110;28;20504;-69
2023/04/23 07:08:06;;;;;;;3.05;0.80;;;;;;;;;;5081733;28;20200;-69
2023/04/23 07:10:32;;;;;;;0.73;0.73;;;;;;;;;;5082007;28;20224;-69
2023/04/23 07:12:58;;;;;;;1.25;0.50;;;;;;;;;;5081832;28;20246;-69
2023/04/23 07:15:24;;;;;;;0.60;0.60;;;;;;;;;;5081786;28;20234;-69
2023/04/23 07:17:51;;;;;;;0.77;0.70;;;;;;;;;;5081874;28;20200;-69
2023/04/23 07:20:17;;;;;;;1.45;0.50;;;;;;;;;;5081854;28;20230;-69
2023/04/23 07:22:45;;;;;;;1.38;0.63;;;;;;;;;;5081804;28;20238;-69
2023/04/23 07:25:11;;;;;;;0.60;0.60;;;;;;;;;;5081788;28;20222;-69
2023/04/23 07:27:38;;;;;;;1.50;0.60;;;;;;;;;;5081440;28;20220;-69
2023/04/23 07:30:04;;;;;;;0.70;0.70;;;;;;;;;;5081539;28;20235;-69
2023/04/23 07:32:31;;;;;;;1.02;1.02;;;;;;;;;;5081834;28;20203;-69
2023/04/23 07:34:57;;;;;;;3.03;0.90;;;;;;;;;;5081654;28;20208;-69
2023/04/23 07:37:23;;;;;;;1.48;0.82;;;;;;;;;;5081603;28;20263;-69
2023/04/23 07:39:52;;;;;;;2.20;1.00;;;;;;;;;;5081791;28;20196;-69
2023/04/23 07:42:18;;;;;;;0.60;0.60;;;;;;;;;;5081435;28;20496;-69
2023/04/23 07:44:45;;;;;;;0.65;0.65;;;;;;;;;;5081868;28;20396;-69
2023/04/23 07:47:11;;;;;;;0.70;0.70;;;;;;;;;;5081513;28;20200;-69
2023/04/23 07:49:37;;;;;;;0.80;0.70;;;;;;;;;;5081313;28;20225;-69
2023/04/23 07:52:04;;;;;;;0.85;0.60;;;;;;;;;;5081164;28;20369;-69
2023/04/23 07:54:30;;;;;;;1.00;0.75;;;;;;;;;;5081181;28;20224;-69
2023/04/23 07:56:57;;;;;;;1.38;0.70;;;;;;;;;;5081189;28;20246;-69
2023/04/23 07:59:24;;;;;;;0.65;0.65;;;;;;;;;;5072976;28;20204;-69
2023/04/23 08:01:50;;;;;;;0.52;0.52;;;;;;;;;;5081211;28;20211;-69
2023/04/23 08:04:16;;;;;;;0.70;0.65;;;;;;;;;;5082826;28;20523;-69
2023/04/23 08:06:42;;;;;;;0.73;0.73;;;;;;;;;;5084894;28;20524;-69
2023/04/23 08:09:09;;;;;;;0.70;0.70;;;;;;;;;;5084554;28;20215;-69
2023/04/23 08:11:35;;;;;;;0.55;0.55;;;;;;;;;;5084570;28;20224;-69
2023/04/23 08:14:02;;;;;;;0.50;0.50;;;;;;;;;;5084311;28;20200;-69
2023/04/23 08:16:29;;;;;;;1.30;0.70;;;;;;;;;;5084439;28;20196;-68
2023/04/23 08:18:55;;;;;;;1.20;1.20;;;;;;;;;;5084443;28;20381;-68
2023/04/23 08:21:23;;;;;;;0.88;0.88;;;;;;;;;;5084369;28;20341;-69
2023/04/23 08:23:49;;;;;;;1.35;0.70;;;;;;;;;;5084584;28;20205;-69
2023/04/23 08:26:15;;;;;;;0.68;0.68;;;;;;;;;;5084168;28;20262;-69
2023/04/23 08:28:42;;;;;;;0.77;0.77;;;;;;;;;;5084544;28;20274;-69
2023/04/23 08:31:09;;;;;;;2.20;0.98;;;;;;;;;;5084146;28;20216;-69
2023/04/23 08:33:35;;;;;;;1.75;0.77;;;;;;;;;;5084383;28;20212;-69
2023/04/23 08:36:02;;;;;;;0.93;0.80;;;;;;;;;;5084147;28;20213;-69
2023/04/23 08:38:28;;;;;;;2.05;0.80;;;;;;;;;;5083960;28;20197;-69
2023/04/23 08:40:57;;;;;;;0.73;0.73;;;;;;;;;;5084577;28;20219;-69
2023/04/23 08:43:27;;;;;;;0.68;0.60;;;;;;;;;;5084226;28;20523;-69
2023/04/23 08:45:54;;;;;;;1.85;0.65;;;;;;;;;;5084133;28;20200;-69
2023/04/23 08:48:22;;;;;;;0.70;0.63;;;;;;;;;;5083945;28;20263;-69
2023/04/23 08:50:48;;;;;;;1.33;0.70;;;;;;;;;;5083952;28;20224;-69
2023/04/23 08:53:17;;;;;;;1.27;0.70;;;;;;;;;;5083656;28;20200;-69
2023/04/23 08:55:45;;;;;;;2.72;0.60;;;;;;;;;;5084040;28;20200;-69
2023/04/23 08:58:11;;;;;;;0.57;0.57;;;;;;;;;;5083388;28;20254;-69
2023/04/23 09:00:38;;;;;;;0.75;0.75;;;;;;;;;;5083793;28;20202;-70
2023/04/23 09:03:04;;;;;;;0.80;0.80;;;;;;;;;;5083656;28;20253;-69
2023/04/23 09:05:32;;;;;;;1.30;0.60;;;;;;;;;;5083479;28;20204;-69
2023/04/23 09:07:58;;;;;;;1.10;0.60;;;;;;;;;;5083387;28;20207;-69
2023/04/23 09:10:25;;;;;;;0.47;0.47;;;;;;;;;;5083427;28;20216;-69
2023/04/23 09:12:51;;;;;;;1.30;0.70;;;;;;;;;;5083493;28;20472;-69
2023/04/23 09:15:18;;;;;;;2.95;0.80;;;;;;;;;;5082488;28;20201;-69
2023/04/23 09:17:45;;;;;;;1.60;0.77;;;;;;;;;;5083846;28;20228;-69
2023/04/23 09:20:12;;;;;;;0.45;0.45;;;;;;;;;;5083052;28;20223;-69
2023/04/23 09:22:40;;;;;;;1.05;0.50;;;;;;;;;;5083499;28;20222;-69
2023/04/23 09:25:07;;;;;;;0.50;0.50;;;;;;;;;;5083215;28;20204;-69
2023/04/23 09:27:35;;;;;;;0.52;0.52;;;;;;;;;;5083247;28;20447;-69
2023/04/23 09:30:03;;;;;;;0.63;0.60;;;;;;;;;;5083521;28;20200;-69
2023/04/23 09:32:31;;;;;;;1.00;0.70;;;;;;;;;;5075618;28;20238;-69
2023/04/23 09:34:57;;;;;;;0.40;0.40;;;;;;;;;;5083136;28;20279;-69
2023/04/23 09:37:25;;;;;;;0.55;0.55;;;;;;;;;;5082967;28;20250;-69
2023/04/23 09:39:55;;;;;;;0.68;0.68;;;;;;;;;;5083167;28;20204;-69
2023/04/23 09:42:23;;;;;;;0.57;0.30;;;;;;;;;;5083081;28;20200;-69
2023/04/23 09:44:55;;;;;;;1.58;0.70;;;;;;;;;;5083075;28;20242;-69
2023/04/23 09:47:21;;;;;;;0.50;0.50;;;;;;;;;;5082641;28;20245;-69
2023/04/23 09:49:48;;;;;;;0.88;0.60;;;;;;;;;;5083361;28;20443;-69
2023/04/23 09:52:14;;;;;;;0.47;0.47;;;;;;;;;;5082815;28;20216;-69
2023/04/23 09:54:42;;;;;;;0.60;0.60;;;;;;;;;;5083006;28;20211;-69
2023/04/23 09:57:11;;;;;;;1.75;0.60;;;;;;;;;;5082518;28;20216;-69
2023/04/23 09:59:37;;;;;;;0.57;0.40;;;;;;;;;;5082712;28;20209;-69
2023/04/23 10:02:04;;;;;;;0.45;0.45;;;;;;;;;;5082824;28;20219;-69
2023/04/23 10:04:30;;;;;;;1.65;0.68;;;;;;;;;;5082847;28;20196;-69
2023/04/23 10:06:57;;;;;;;0.80;0.80;;;;;;;;;;5082762;28;20214;-69
2023/04/23 10:09:24;;;;;;;0.80;0.80;;;;;;;;;;5082606;28;20200;-69
2023/04/23 10:11:51;;;;;;;0.73;0.50;;;;;;;;;;5082578;28;20220;-69
2023/04/23 10:14:19;;;;;;;1.85;0.60;;;;;;;;;;5082329;28;20212;-69
2023/04/23 10:16:46;;;;;;;0.57;0.57;;;;;;;;;;5082476;28;20210;-69
2023/04/23 10:19:13;;;;;;;0.50;0.50;;;;;;;;;;5082472;28;20268;-69
2023/04/23 10:21:41;;;;;;;0.68;0.50;;;;;;;;;;5082697;28;20234;-70
2023/04/23 10:24:09;;;;;;;0.82;0.70;;;;;;;;;;5082534;28;20258;-70
2023/04/23 10:26:37;;;;;;;1.48;0.45;;;;;;;;;;5082094;28;20238;-70
2023/04/23 10:29:05;;;;;;;1.52;0.70;;;;;;;;;;5082045;28;20265;-69
2023/04/23 10:31:32;;;;;;;0.82;0.60;;;;;;;;;;5082288;28;20262;-69
2023/04/23 10:34:00;;;;;;;3.65;3.35;;;;;;;;;;5082373;28;20480;-69
2023/04/23 10:36:27;;;;;;;2.30;0.60;;;;;;;;;;5082260;28;20201;-69
2023/04/23 10:38:55;;;;;;;1.15;0.40;;;;;;;;;;5082356;28;20200;-69
2023/04/23 10:41:23;;;;;;;1.35;0.57;;;;;;;;;;5082285;28;20189;-69
2023/04/23 10:43:50;;;;;;;0.55;0.43;;;;;;;;;;5082567;28;20429;-70
2023/04/23 10:46:28;;;;;;;0.40;0.40;;;;;;;;;;5082435;28;20238;-70
2023/04/23 10:49:06;;;;;;;0.40;0.40;;;;;;;;;;5082268;28;20212;-70
2023/04/23 10:51:33;;;;;;;0.70;0.70;;;;;;;;;;5082202;28;20220;-70
2023/04/23 10:53:59;;;;;;;0.52;0.52;;;;;;;;;;5082109;28;20454;-70
2023/04/23 10:56:27;;;;;;;0.40;0.40;;;;;;;;;;5082160;28;20246;-70
2023/04/23 10:58:53;;;;;;;1.02;0.40;;;;;;;;;;5081978;28;20392;-70
2023/04/23 11:01:20;;;;;;;0.75;0.60;;;;;;;;;;5082028;28;20203;-70
2023/04/23 11:03:47;;;;;;;1.65;0.40;;;;;;;;;;5082037;28;20207;-70
2023/04/23 11:06:19;;;;;;;0.63;0.40;;;;;;;;;;5082016;28;20200;-70
2023/04/23 11:08:52;;;;;;;2.05;0.40;;;;;;;;;;5081750;28;20204;-69
2023/04/23 11:11:19;;;;;;;1.00;0.50;;;;;;;;;;5082075;28;20223;-69
2023/04/23 11:13:51;;;;;;;0.40;0.40;;;;;;;;;;5081849;28;20207;-69
2023/04/23 11:16:20;;;;;;;3.08;0.60;;;;;;;;;;5081899;28;20561;-69
2023/04/23 11:18:56;;;;;;;0.40;0.40;;;;;;;;;;5081620;28;20292;-69
2023/04/23 11:21:44;;;;;;;0.30;0.30;;;;;;;;;;5081908;28;20196;-69
2023/04/23 11:24:10;;;;;;;0.38;0.38;;;;;;;;;;5081520;28;20208;-69
2023/04/23 11:26:37;;;;;;;0.40;0.40;;;;;;;;;;5081847;28;20202;-69
2023/04/23 11:29:05;;;;;;;0.70;0.70;;;;;;;;;;5081647;28;20278;-69
2023/04/23 11:31:32;;;;;;;0.52;0.52;;;;;;;;;;5081563;28;20216;-69
2023/04/23 11:33:58;;;;;;;0.40;0.40;;;;;;;;;;5081638;28;20205;-69
2023/04/23 11:36:27;;;;;;;1.52;0.50;;;;;;;;;;5081733;28;20204;-70
2023/04/23 11:38:55;;;;;;;0.45;0.45;;;;;;;;;;5082687;28;20207;-69
2023/04/23 11:41:22;;;;;;;0.40;0.40;;;;;;;;;;5085565;28;20203;-69
2023/04/23 11:43:48;;;;;;;0.60;0.60;;;;;;;;;;5085459;28;20207;-69
2023/04/23 11:46:15;;;;;;;0.60;0.60;;;;;;;;;;5085361;28;20200;-69
2023/04/23 11:48:41;;;;;;;0.50;0.50;;;;;;;;;;5085298;28;20204;-69
2023/04/23 11:51:08;;;;;;;0.80;0.43;;;;;;;;;;5085399;28;20422;-69
2023/04/23 11:53:35;;;;;;;1.00;0.50;;;;;;;;;;5085259;28;20200;-69
2023/04/23 11:56:04;;;;;;;2.78;0.50;;;;;;;;;;5085534;28;20200;-70
2023/04/23 11:58:30;;;;;;;2.15;0.40;;;;;;;;;;5085170;28;20204;-70
2023/04/23 12:00:57;;;;;;;1.75;0.60;;;;;;;;;;5085270;28;20500;-70
2023/04/23 12:03:25;;;;;;;0.63;0.50;;;;;;;;;;5084915;28;20200;-70
2023/04/23 12:05:52;;;;;;;0.50;0.50;;;;;;;;;;5084850;28;20203;-70
2023/04/23 12:08:19;;;;;;;0.50;0.50;;;;;;;;;;5084575;28;20196;-70
2023/04/23 12:10:47;;;;;;;0.50;0.50;;;;;;;;;;5084778;28;20211;-70
2023/04/23 12:13:14;;;;;;;0.43;0.43;;;;;;;;;;5084736;28;20200;-70
2023/04/23 12:15:44;;;;;;;0.40;0.40;;;;;;;;;;5084925;28;20196;-70
2023/04/23 12:18:10;;;;;;;0.50;0.50;;;;;;;;;;5084692;28;20196;-70
2023/04/23 12:20:38;;;;;;;0.50;0.50;;;;;;;;;;5084484;28;20217;-70
2023/04/23 12:23:05;;;;;;;0.73;0.60;;;;;;;;;;5084679;28;20196;-70
2023/04/23 12:25:32;;;;;;;0.82;0.40;;;;;;;;;;5084415;28;20570;-70
2023/04/23 12:28:00;;;;;;;1.55;0.40;;;;;;;;;;5084525;28;20272;-70
2023/04/23 12:30:28;;;;;;;0.30;0.30;;;;;;;;;;5084677;28;20231;-70
2023/04/23 12:32:58;;;;;;;1.33;0.52;;;;;;;;;;5084423;28;20278;-70
2023/04/23 12:35:37;;;;;;;0.70;0.70;;;;;;;;;;5084332;28;20388;-70
2023/04/23 12:38:04;;;;;;;1.00;0.63;;;;;;;;;;5084097;28;20200;-70
2023/04/23 12:40:30;;;;;;;0.85;0.50;;;;;;;;;;5084316;28;20242;-70
2023/04/23 12:42:56;;;;;;;1.00;0.70;;;;;;;;;;5084727;28;20238;-70
2023/04/23 12:45:24;;;;;;;1.08;0.50;;;;;;;;;;5084603;28;20518;-70
2023/04/23 12:47:50;;;;;;;0.50;0.50;;;;;;;;;;5084352;28;20196;-70
2023/04/23 12:50:17;;;;;;;0.63;0.40;;;;;;;;;;5084296;28;20207;-70
2023/04/23 12:52:43;;;;;;;0.85;0.50;;;;;;;;;;5084251;28;20531;-70
2023/04/23 12:55:09;;;;;;;1.45;0.70;;;;;;;;;;5084428;28;20199;-70
2023/04/23 12:57:36;;;;;;;0.68;0.40;;;;;;;;;;5084050;28;20245;-70
2023/04/23 13:00:02;;;;;;;0.63;0.63;;;;;;;;;;5084296;28;20317;-70
2023/04/23 13:02:30;;;;;;;0.50;0.50;;;;;;;;;;5084074;28;20294;-70
2023/04/23 13:04:59;;;;;;;0.82;0.50;;;;;;;;;;5084016;28;20197;-70
2023/04/23 13:07:25;;;;;;;1.45;0.40;;;;;;;;;;5083660;28;20259;-70
2023/04/23 13:09:52;;;;;;;0.60;0.60;;;;;;;;;;5083821;28;20196;-70
2023/04/23 13:12:18;;;;;;;0.57;0.40;;;;;;;;;;5083934;28;20219;-70
2023/04/23 13:14:44;;;;;;;0.52;0.52;;;;;;;;;;5083759;28;20207;-70
2023/04/23 13:17:10;;;;;;;0.50;0.50;;;;;;;;;;5083316;28;20250;-70
2023/04/23 13:19:39;;;;;;;0.90;0.60;;;;;;;;;;5083543;28;22312;-70
2023/04/23 13:22:05;;;;;;;0.95;0.50;;;;;;;;;;5083584;28;20432;-70
2023/04/23 13:24:31;;;;;;;1.48;0.60;;;;;;;;;;5083471;28;20207;-70
2023/04/23 13:26:58;;;;;;;0.70;0.70;;;;;;;;;;5083460;28;20254;-70
2023/04/23 13:29:26;;;;;;;0.50;0.50;;;;;;;;;;5083286;28;20204;-70
2023/04/23 13:31:52;;;;;;;1.55;0.60;;;;;;;;;;5083259;28;20211;-70
2023/04/23 13:34:18;;;;;;;0.50;0.50;;;;;;;;;;5082999;28;20200;-70
2023/04/23 13:36:46;;;;;;;3.30;0.40;;;;;;;;;;5083432;28;20204;-70
2023/04/23 13:39:13;;;;;;;0.85;0.60;;;;;;;;;;5083224;28;20245;-70
2023/04/23 13:41:39;;;;;;;2.08;0.63;;;;;;;;;;5082988;28;20206;-70
2023/04/23 13:44:05;;;;;;;1.38;0.40;;;;;;;;;;5083181;28;20255;-70
2023/04/23 13:46:32;;;;;;;1.38;0.60;;;;;;;;;;5082979;28;20242;-70
2023/04/23 13:48:58;;;;;;;2.53;0.50;;;;;;;;;;5082832;28;20196;-70
2023/04/23 13:51:25;;;;;;;2.95;0.60;;;;;;;;;;5082892;28;20227;-70
2023/04/23 13:53:52;;;;;;;0.88;0.40;;;;;;;;;;5083226;28;20196;-70
2023/04/23 13:56:19;;;;;;;1.92;0.75;;;;;;;;;;5082889;28;20203;-69
2023/04/23 13:58:47;;;;;;;0.70;0.70;;;;;;;;;;5074482;28;20500;-69
2023/04/23 14:01:14;;;;;;;0.40;0.40;;;;;;;;;;5082198;28;20196;-69
2023/04/23 14:03:40;;;;;;;0.40;0.40;;;;;;;;;;5082554;28;20451;-69
2023/04/23 14:06:07;;;;;;;0.50;0.50;;;;;;;;;;5082727;28;20204;-69
2023/04/23 14:08:35;;;;;;;0.60;0.60;;;;;;;;;;5082558;28;20200;-69
2023/04/23 14:11:03;;;;;;;2.85;0.50;;;;;;;;;;5082879;28;20322;-69
2023/04/23 14:13:29;;;;;;;1.48;0.57;;;;;;;;;;5082486;28;20236;-69
2023/04/23 14:15:56;;;;;;;0.43;0.43;;;;;;;;;;5082513;28;20499;-70
2023/04/23 14:18:22;;;;;;;0.55;0.50;;;;;;;;;;5082184;28;20208;-70
2023/04/23 14:20:49;;;;;;;1.15;0.50;;;;;;;;;;5082798;28;20422;-70
2023/04/23 14:23:41;;;;;;;1.17;0.68;;;;;;;;;;5082570;28;20199;-70
2023/04/23 14:26:09;;;;;;;2.33;0.60;;;;;;;;;;5077274;28;20422;-70
2023/04/23 14:28:40;;;;;;;2.05;0.60;;;;;;;;;;5081888;28;20228;-70
2023/04/23 14:31:06;;;;;;;0.70;0.40;;;;;;;;;;5082371;28;20196;-70
2023/04/23 14:33:33;;;;;;;0.85;0.50;;;;;;;;;;5082192;28;20215;-70
2023/04/23 14:35:59;;;;;;;1.05;0.70;;;;;;;;;;5082443;28;20196;-70
2023/04/23 14:38:25;;;;;;;1.13;0.47;;;;;;;;;;5082221;28;20235;-70
2023/04/23 14:40:51;;;;;;;1.85;0.55;;;;;;;;;;5082176;28;20202;-70